sensor_id;sensor_type;location;lat;lon;timestamp;P1;durP1;ratioP1;P2;durP2;ratioP2
35223;SDS011;21367;51.930;8.112;2022-12-19T00:00:50;87.28;;;26.95;;
35223;SDS011;21367;51.930;8.112;2022-12-19T00:05:59;85.80;;;27.35;;
35223;SDS011;21367;51.930;8.112;2022-12-19T00:11:06;85.30;;;27.75;;
35223;SDS011;21367;51.930;8.112;2022-12-19T00:16:10;84.57;;;26.95;;
35223;SDS011;21367;51.930;8.112;2022-12-19T00:21:19;91.67;;;27.70;;
35223;SDS011;21367;51.930;8.112;2022-12-19T00:26:24;89.32;;;28.92;;
35223;SDS011;21367;51.930;8.112;2022-12-19T00:31:31;95.07;;;28.25;;
35223;SDS011;21367;51.930;8.112;2022-12-19T00:36:38;93.00;;;29.00;;
35223;SDS011;21367;51.930;8.112;2022-12-19T00:41:42;87.32;;;27.67;;
35223;SDS011;21367;51.930;8.112;2022-12-19T00:46:46;88.40;;;27.33;;
35223;SDS011;21367;51.930;8.112;2022-12-19T00:51:52;88.15;;;28.08;;
35223;SDS011;21367;51.930;8.112;2022-12-19T00:56:57;95.50;;;29.77;;
35223;SDS011;21367;51.930;8.112;2022-12-19T01:02:01;92.97;;;29.38;;
35223;SDS011;21367;51.930;8.112;2022-12-19T01:07:07;98.85;;;27.38;;
35223;SDS011;21367;51.930;8.112;2022-12-19T01:17:27;92.55;;;27.30;;
35223;SDS011;21367;51.930;8.112;2022-12-19T01:22:33;84.72;;;26.42;;
35223;SDS011;21367;51.930;8.112;2022-12-19T01:27:38;94.30;;;26.58;;
35223;SDS011;21367;51.930;8.112;2022-12-19T01:32:42;102.32;;;31.27;;
35223;SDS011;21367;51.930;8.112;2022-12-19T01:37:48;92.88;;;28.80;;
35223;SDS011;21367;51.930;8.112;2022-12-19T01:42:52;83.00;;;25.30;;
35223;SDS011;21367;51.930;8.112;2022-12-19T01:47:59;86.50;;;26.85;;
35223;SDS011;21367;51.930;8.112;2022-12-19T01:53:09;97.90;;;29.48;;
35223;SDS011;21367;51.930;8.112;2022-12-19T01:58:14;90.35;;;25.52;;
35223;SDS011;21367;51.930;8.112;2022-12-19T02:03:20;83.38;;;25.80;;
35223;SDS011;21367;51.930;8.112;2022-12-19T02:08:30;97.03;;;24.98;;
35223;SDS011;21367;51.930;8.112;2022-12-19T02:13:33;69.00;;;23.23;;
35223;SDS011;21367;51.930;8.112;2022-12-19T02:18:38;77.57;;;23.70;;
35223;SDS011;21367;51.930;8.112;2022-12-19T02:35:22;80.22;;;22.88;;
35223;SDS011;21367;51.930;8.112;2022-12-19T02:40:37;80.43;;;25.55;;
35223;SDS011;21367;51.930;8.112;2022-12-19T02:45:47;74.18;;;24.88;;
35223;SDS011;21367;51.930;8.112;2022-12-19T02:50:55;81.78;;;24.70;;
35223;SDS011;21367;51.930;8.112;2022-12-19T02:56:10;70.88;;;22.92;;
35223;SDS011;21367;51.930;8.112;2022-12-19T03:01:35;69.40;;;23.50;;
35223;SDS011;21367;51.930;8.112;2022-12-19T03:06:49;70.50;;;22.63;;
35223;SDS011;21367;51.930;8.112;2022-12-19T03:12:00;66.70;;;24.60;;
35223;SDS011;21367;51.930;8.112;2022-12-19T03:17:08;78.90;;;22.98;;
35223;SDS011;21367;51.930;8.112;2022-12-19T03:22:14;81.00;;;24.83;;
35223;SDS011;21367;51.930;8.112;2022-12-19T03:27:19;71.60;;;24.02;;
35223;SDS011;21367;51.930;8.112;2022-12-19T03:32:27;71.38;;;22.92;;
35223;SDS011;21367;51.930;8.112;2022-12-19T03:37:36;69.68;;;23.52;;
35223;SDS011;21367;51.930;8.112;2022-12-19T03:42:42;69.85;;;22.45;;
35223;SDS011;21367;51.930;8.112;2022-12-19T03:48:02;76.10;;;23.95;;
35223;SDS011;21367;51.930;8.112;2022-12-19T03:53:14;83.55;;;25.75;;
35223;SDS011;21367;51.930;8.112;2022-12-19T03:58:28;71.43;;;24.08;;
35223;SDS011;21367;51.930;8.112;2022-12-19T04:03:36;75.07;;;24.95;;
35223;SDS011;21367;51.930;8.112;2022-12-19T04:08:43;73.07;;;24.90;;
35223;SDS011;21367;51.930;8.112;2022-12-19T04:13:47;75.47;;;24.20;;
35223;SDS011;21367;51.930;8.112;2022-12-19T04:18:56;69.85;;;24.08;;
35223;SDS011;21367;51.930;8.112;2022-12-19T04:24:09;68.47;;;22.38;;
35223;SDS011;21367;51.930;8.112;2022-12-19T04:29:17;75.03;;;23.45;;
35223;SDS011;21367;51.930;8.112;2022-12-19T04:34:23;77.97;;;23.50;;
35223;SDS011;21367;51.930;8.112;2022-12-19T04:39:29;74.72;;;24.85;;
35223;SDS011;21367;51.930;8.112;2022-12-19T04:44:34;70.45;;;22.15;;
35223;SDS011;21367;51.930;8.112;2022-12-19T04:49:38;82.38;;;25.85;;
35223;SDS011;21367;51.930;8.112;2022-12-19T04:54:46;88.07;;;25.80;;
35223;SDS011;21367;51.930;8.112;2022-12-19T04:59:49;83.30;;;25.60;;
35223;SDS011;21367;51.930;8.112;2022-12-19T05:04:55;84.63;;;25.87;;
35223;SDS011;21367;51.930;8.112;2022-12-19T05:10:01;81.63;;;27.42;;
35223;SDS011;21367;51.930;8.112;2022-12-19T05:15:06;78.03;;;25.60;;
35223;SDS011;21367;51.930;8.112;2022-12-19T05:20:11;82.53;;;25.13;;
35223;SDS011;21367;51.930;8.112;2022-12-19T05:25:17;82.18;;;26.48;;
35223;SDS011;21367;51.930;8.112;2022-12-19T05:30:21;87.22;;;28.15;;
35223;SDS011;21367;51.930;8.112;2022-12-19T05:35:25;85.63;;;28.50;;
35223;SDS011;21367;51.930;8.112;2022-12-19T05:40:31;86.50;;;26.60;;
35223;SDS011;21367;51.930;8.112;2022-12-19T05:45:35;77.53;;;26.83;;
35223;SDS011;21367;51.930;8.112;2022-12-19T05:50:41;69.50;;;25.67;;
35223;SDS011;21367;51.930;8.112;2022-12-19T05:55:52;81.55;;;26.98;;
35223;SDS011;21367;51.930;8.112;2022-12-19T06:01:05;88.40;;;27.00;;
35223;SDS011;21367;51.930;8.112;2022-12-19T06:06:12;80.15;;;26.17;;
35223;SDS011;21367;51.930;8.112;2022-12-19T06:11:21;84.10;;;26.30;;
35223;SDS011;21367;51.930;8.112;2022-12-19T06:16:25;77.75;;;26.70;;
35223;SDS011;21367;51.930;8.112;2022-12-19T06:21:29;82.95;;;25.67;;
35223;SDS011;21367;51.930;8.112;2022-12-19T06:26:38;77.00;;;26.73;;
35223;SDS011;21367;51.930;8.112;2022-12-19T06:31:43;75.50;;;25.27;;
35223;SDS011;21367;51.930;8.112;2022-12-19T06:36:47;84.82;;;25.83;;
35223;SDS011;21367;51.930;8.112;2022-12-19T06:41:53;71.78;;;23.85;;
35223;SDS011;21367;51.930;8.112;2022-12-19T06:47:25;63.08;;;23.27;;
35223;SDS011;21367;51.930;8.112;2022-12-19T06:52:28;74.07;;;24.50;;
35223;SDS011;21367;51.930;8.112;2022-12-19T06:57:35;68.80;;;22.13;;
35223;SDS011;21367;51.930;8.112;2022-12-19T07:02:46;69.65;;;25.02;;
35223;SDS011;21367;51.930;8.112;2022-12-19T07:07:53;67.65;;;25.15;;
35223;SDS011;21367;51.930;8.112;2022-12-19T07:13:00;82.40;;;26.45;;
35223;SDS011;21367;51.930;8.112;2022-12-19T07:18:04;69.28;;;23.90;;
35223;SDS011;21367;51.930;8.112;2022-12-19T07:23:12;68.18;;;24.70;;
35223;SDS011;21367;51.930;8.112;2022-12-19T07:28:21;80.95;;;26.10;;
35223;SDS011;21367;51.930;8.112;2022-12-19T07:33:25;66.22;;;25.00;;
35223;SDS011;21367;51.930;8.112;2022-12-19T07:38:29;67.60;;;22.60;;
35223;SDS011;21367;51.930;8.112;2022-12-19T07:43:35;57.50;;;23.83;;
35223;SDS011;21367;51.930;8.112;2022-12-19T07:48:40;58.35;;;22.75;;
35223;SDS011;21367;51.930;8.112;2022-12-19T07:53:44;55.85;;;21.17;;
35223;SDS011;21367;51.930;8.112;2022-12-19T07:58:53;53.03;;;20.85;;
35223;SDS011;21367;51.930;8.112;2022-12-19T08:03:57;55.88;;;22.48;;
35223;SDS011;21367;51.930;8.112;2022-12-19T08:09:01;50.65;;;20.98;;
35223;SDS011;21367;51.930;8.112;2022-12-19T08:14:08;49.85;;;20.52;;
35223;SDS011;21367;51.930;8.112;2022-12-19T08:19:12;62.00;;;22.65;;
35223;SDS011;21367;51.930;8.112;2022-12-19T08:24:16;57.47;;;23.52;;
35223;SDS011;21367;51.930;8.112;2022-12-19T08:29:22;54.20;;;22.10;;
35223;SDS011;21367;51.930;8.112;2022-12-19T08:34:26;54.28;;;20.63;;
35223;SDS011;21367;51.930;8.112;2022-12-19T08:39:30;42.42;;;19.35;;
35223;SDS011;21367;51.930;8.112;2022-12-19T08:44:36;37.63;;;15.50;;
35223;SDS011;21367;51.930;8.112;2022-12-19T08:49:40;38.58;;;17.13;;
35223;SDS011;21367;51.930;8.112;2022-12-19T08:54:44;37.72;;;16.50;;
35223;SDS011;21367;51.930;8.112;2022-12-19T08:59:51;31.40;;;14.27;;
35223;SDS011;21367;51.930;8.112;2022-12-19T09:04:58;31.55;;;14.35;;
35223;SDS011;21367;51.930;8.112;2022-12-19T09:10:02;37.75;;;14.38;;
35223;SDS011;21367;51.930;8.112;2022-12-19T09:15:09;38.10;;;15.63;;
35223;SDS011;21367;51.930;8.112;2022-12-19T09:20:13;33.92;;;15.90;;
35223;SDS011;21367;51.930;8.112;2022-12-19T09:25:17;34.28;;;15.90;;
35223;SDS011;21367;51.930;8.112;2022-12-19T09:30:23;36.70;;;15.73;;
35223;SDS011;21367;51.930;8.112;2022-12-19T09:35:28;43.80;;;16.58;;
35223;SDS011;21367;51.930;8.112;2022-12-19T09:40:34;31.65;;;15.05;;
35223;SDS011;21367;51.930;8.112;2022-12-19T09:46:01;34.80;;;14.25;;
35223;SDS011;21367;51.930;8.112;2022-12-19T09:51:15;28.00;;;13.60;;
35223;SDS011;21367;51.930;8.112;2022-12-19T09:56:30;34.13;;;14.02;;
35223;SDS011;21367;51.930;8.112;2022-12-19T10:01:43;30.13;;;13.88;;
35223;SDS011;21367;51.930;8.112;2022-12-19T10:06:52;30.63;;;14.93;;
35223;SDS011;21367;51.930;8.112;2022-12-19T10:12:01;31.80;;;14.55;;
35223;SDS011;21367;51.930;8.112;2022-12-19T10:17:18;30.88;;;14.63;;
35223;SDS011;21367;51.930;8.112;2022-12-19T10:22:35;32.85;;;14.43;;
35223;SDS011;21367;51.930;8.112;2022-12-19T10:27:47;34.78;;;14.45;;
35223;SDS011;21367;51.930;8.112;2022-12-19T10:33:04;26.98;;;13.73;;
35223;SDS011;21367;51.930;8.112;2022-12-19T10:38:20;31.70;;;15.38;;
35223;SDS011;21367;51.930;8.112;2022-12-19T10:43:33;30.48;;;14.75;;
35223;SDS011;21367;51.930;8.112;2022-12-19T10:48:46;29.48;;;14.23;;
35223;SDS011;21367;51.930;8.112;2022-12-19T10:53:53;28.25;;;13.57;;
35223;SDS011;21367;51.930;8.112;2022-12-19T10:58:58;26.27;;;13.32;;
35223;SDS011;21367;51.930;8.112;2022-12-19T11:09:36;32.85;;;13.90;;
35223;SDS011;21367;51.930;8.112;2022-12-19T11:14:42;38.43;;;14.60;;
35223;SDS011;21367;51.930;8.112;2022-12-19T11:19:55;27.70;;;14.20;;
35223;SDS011;21367;51.930;8.112;2022-12-19T11:24:59;28.55;;;13.40;;
35223;SDS011;21367;51.930;8.112;2022-12-19T11:30:05;31.40;;;14.18;;
35223;SDS011;21367;51.930;8.112;2022-12-19T11:35:18;28.05;;;13.15;;
35223;SDS011;21367;51.930;8.112;2022-12-19T11:40:27;27.63;;;13.15;;
35223;SDS011;21367;51.930;8.112;2022-12-19T11:45:40;31.55;;;14.63;;
35223;SDS011;21367;51.930;8.112;2022-12-19T11:50:55;36.13;;;14.98;;
35223;SDS011;21367;51.930;8.112;2022-12-19T11:56:07;36.58;;;15.80;;
35223;SDS011;21367;51.930;8.112;2022-12-19T12:01:17;32.53;;;13.77;;
35223;SDS011;21367;51.930;8.112;2022-12-19T12:06:46;31.73;;;14.52;;
35223;SDS011;21367;51.930;8.112;2022-12-19T12:11:55;31.60;;;14.30;;
35223;SDS011;21367;51.930;8.112;2022-12-19T12:17:16;32.45;;;14.60;;
35223;SDS011;21367;51.930;8.112;2022-12-19T12:22:39;34.28;;;15.63;;
35223;SDS011;21367;51.930;8.112;2022-12-19T12:27:54;31.42;;;14.00;;
35223;SDS011;21367;51.930;8.112;2022-12-19T12:33:12;30.23;;;14.43;;
35223;SDS011;21367;51.930;8.112;2022-12-19T12:38:29;32.85;;;14.95;;
35223;SDS011;21367;51.930;8.112;2022-12-19T12:43:46;33.70;;;15.15;;
35223;SDS011;21367;51.930;8.112;2022-12-19T12:49:04;33.67;;;14.73;;
35223;SDS011;21367;51.930;8.112;2022-12-19T12:54:21;35.65;;;14.05;;
35223;SDS011;21367;51.930;8.112;2022-12-19T12:59:31;35.38;;;14.13;;
35223;SDS011;21367;51.930;8.112;2022-12-19T13:04:40;27.92;;;14.05;;
35223;SDS011;21367;51.930;8.112;2022-12-19T13:09:50;29.40;;;13.23;;
35223;SDS011;21367;51.930;8.112;2022-12-19T13:20:46;35.97;;;14.73;;
35223;SDS011;21367;51.930;8.112;2022-12-19T13:25:53;31.65;;;13.15;;
35223;SDS011;21367;51.930;8.112;2022-12-19T13:31:13;33.15;;;14.40;;
35223;SDS011;21367;51.930;8.112;2022-12-19T13:41:54;29.13;;;13.98;;
35223;SDS011;21367;51.930;8.112;2022-12-19T13:52:21;27.75;;;11.90;;
35223;SDS011;21367;51.930;8.112;2022-12-19T13:57:29;31.45;;;13.73;;
35223;SDS011;21367;51.930;8.112;2022-12-19T14:02:34;29.65;;;12.60;;
35223;SDS011;21367;51.930;8.112;2022-12-19T14:07:41;27.65;;;12.48;;
35223;SDS011;21367;51.930;8.112;2022-12-19T14:12:47;31.42;;;15.07;;
35223;SDS011;21367;51.930;8.112;2022-12-19T14:18:12;26.60;;;11.68;;
35223;SDS011;21367;51.930;8.112;2022-12-19T14:23:20;28.87;;;12.00;;
35223;SDS011;21367;51.930;8.112;2022-12-19T14:28:30;24.23;;;10.45;;
35223;SDS011;21367;51.930;8.112;2022-12-19T14:33:42;23.05;;;10.45;;
35223;SDS011;21367;51.930;8.112;2022-12-19T14:38:49;18.60;;;9.35;;
35223;SDS011;21367;51.930;8.112;2022-12-19T14:43:55;24.50;;;9.10;;
35223;SDS011;21367;51.930;8.112;2022-12-19T14:49:00;23.02;;;10.00;;
35223;SDS011;21367;51.930;8.112;2022-12-19T14:54:16;22.77;;;10.02;;
35223;SDS011;21367;51.930;8.112;2022-12-19T14:59:29;17.88;;;9.10;;
35223;SDS011;21367;51.930;8.112;2022-12-19T15:04:35;23.17;;;10.32;;
35223;SDS011;21367;51.930;8.112;2022-12-19T15:09:46;18.90;;;9.05;;
35223;SDS011;21367;51.930;8.112;2022-12-19T15:15:08;19.42;;;7.95;;
35223;SDS011;21367;51.930;8.112;2022-12-19T15:20:20;17.40;;;8.48;;
35223;SDS011;21367;51.930;8.112;2022-12-19T15:25:25;18.63;;;9.23;;
35223;SDS011;21367;51.930;8.112;2022-12-19T15:30:32;19.02;;;8.05;;
35223;SDS011;21367;51.930;8.112;2022-12-19T15:35:43;20.05;;;8.63;;
35223;SDS011;21367;51.930;8.112;2022-12-19T15:40:47;15.95;;;8.07;;
35223;SDS011;21367;51.930;8.112;2022-12-19T15:45:56;17.98;;;7.97;;
35223;SDS011;21367;51.930;8.112;2022-12-19T15:51:01;18.00;;;8.15;;
35223;SDS011;21367;51.930;8.112;2022-12-19T15:56:05;25.67;;;10.25;;
35223;SDS011;21367;51.930;8.112;2022-12-19T16:01:32;23.23;;;9.30;;
35223;SDS011;21367;51.930;8.112;2022-12-19T16:06:36;22.42;;;9.63;;
35223;SDS011;21367;51.930;8.112;2022-12-19T16:11:42;15.65;;;8.10;;
35223;SDS011;21367;51.930;8.112;2022-12-19T16:16:51;19.30;;;8.85;;
35223;SDS011;21367;51.930;8.112;2022-12-19T16:27:18;20.52;;;10.02;;
35223;SDS011;21367;51.930;8.112;2022-12-19T16:32:32;23.65;;;11.15;;
35223;SDS011;21367;51.930;8.112;2022-12-19T16:37:36;29.02;;;12.18;;
35223;SDS011;21367;51.930;8.112;2022-12-19T16:42:40;25.25;;;10.70;;
35223;SDS011;21367;51.930;8.112;2022-12-19T16:47:48;25.50;;;8.95;;
35223;SDS011;21367;51.930;8.112;2022-12-19T16:52:52;21.88;;;10.40;;
35223;SDS011;21367;51.930;8.112;2022-12-19T16:57:58;21.95;;;10.07;;
35223;SDS011;21367;51.930;8.112;2022-12-19T17:03:08;21.67;;;8.57;;
35223;SDS011;21367;51.930;8.112;2022-12-19T17:08:30;19.38;;;7.70;;
35223;SDS011;21367;51.930;8.112;2022-12-19T17:13:34;16.52;;;8.68;;
35223;SDS011;21367;51.930;8.112;2022-12-19T17:18:43;17.83;;;8.00;;
35223;SDS011;21367;51.930;8.112;2022-12-19T17:23:48;21.63;;;9.18;;
35223;SDS011;21367;51.930;8.112;2022-12-19T17:28:52;20.05;;;8.05;;
35223;SDS011;21367;51.930;8.112;2022-12-19T17:34:01;18.92;;;8.00;;
35223;SDS011;21367;51.930;8.112;2022-12-19T17:39:11;20.08;;;8.98;;
35223;SDS011;21367;51.930;8.112;2022-12-19T17:44:23;15.97;;;7.87;;
35223;SDS011;21367;51.930;8.112;2022-12-19T17:49:30;20.02;;;9.07;;
35223;SDS011;21367;51.930;8.112;2022-12-19T17:54:35;15.27;;;7.65;;
35223;SDS011;21367;51.930;8.112;2022-12-19T17:59:39;18.83;;;9.30;;
35223;SDS011;21367;51.930;8.112;2022-12-19T18:04:48;22.83;;;9.87;;
35223;SDS011;21367;51.930;8.112;2022-12-19T18:09:53;21.45;;;9.38;;
35223;SDS011;21367;51.930;8.112;2022-12-19T18:15:00;22.85;;;10.10;;
35223;SDS011;21367;51.930;8.112;2022-12-19T18:25:26;22.15;;;9.65;;
35223;SDS011;21367;51.930;8.112;2022-12-19T18:30:35;20.40;;;8.98;;
35223;SDS011;21367;51.930;8.112;2022-12-19T18:35:47;20.80;;;9.27;;
35223;SDS011;21367;51.930;8.112;2022-12-19T18:40:55;19.77;;;8.52;;
35223;SDS011;21367;51.930;8.112;2022-12-19T18:45:59;16.73;;;8.20;;
35223;SDS011;21367;51.930;8.112;2022-12-19T18:51:08;19.70;;;7.32;;
35223;SDS011;21367;51.930;8.112;2022-12-19T18:56:17;20.75;;;7.07;;
35223;SDS011;21367;51.930;8.112;2022-12-19T19:01:24;34.35;;;14.30;;
35223;SDS011;21367;51.930;8.112;2022-12-19T19:06:31;15.65;;;6.78;;
35223;SDS011;21367;51.930;8.112;2022-12-19T19:11:35;17.02;;;6.25;;
35223;SDS011;21367;51.930;8.112;2022-12-19T19:16:39;12.93;;;5.82;;
35223;SDS011;21367;51.930;8.112;2022-12-19T19:21:47;13.00;;;5.90;;
35223;SDS011;21367;51.930;8.112;2022-12-19T19:26:51;13.68;;;5.90;;
35223;SDS011;21367;51.930;8.112;2022-12-19T19:31:55;10.80;;;5.15;;
35223;SDS011;21367;51.930;8.112;2022-12-19T19:37:01;15.77;;;6.28;;
35223;SDS011;21367;51.930;8.112;2022-12-19T19:42:07;17.77;;;6.03;;
35223;SDS011;21367;51.930;8.112;2022-12-19T19:47:11;10.50;;;5.53;;
35223;SDS011;21367;51.930;8.112;2022-12-19T19:52:18;15.35;;;5.47;;
35223;SDS011;21367;51.930;8.112;2022-12-19T19:57:22;10.38;;;6.20;;
35223;SDS011;21367;51.930;8.112;2022-12-19T20:02:28;13.10;;;5.57;;
35223;SDS011;21367;51.930;8.112;2022-12-19T20:07:35;16.23;;;6.15;;
35223;SDS011;21367;51.930;8.112;2022-12-19T20:12:39;12.70;;;5.53;;
35223;SDS011;21367;51.930;8.112;2022-12-19T20:17:43;13.13;;;5.13;;
35223;SDS011;21367;51.930;8.112;2022-12-19T20:22:50;10.55;;;5.30;;
35223;SDS011;21367;51.930;8.112;2022-12-19T20:27:54;12.77;;;5.15;;
35223;SDS011;21367;51.930;8.112;2022-12-19T20:32:58;12.48;;;4.65;;
35223;SDS011;21367;51.930;8.112;2022-12-19T20:38:04;13.32;;;4.60;;
35223;SDS011;21367;51.930;8.112;2022-12-19T20:43:09;16.48;;;5.72;;
35223;SDS011;21367;51.930;8.112;2022-12-19T20:48:13;8.75;;;4.05;;
35223;SDS011;21367;51.930;8.112;2022-12-19T20:53:20;19.83;;;5.20;;
35223;SDS011;21367;51.930;8.112;2022-12-19T20:58:25;12.93;;;4.57;;
35223;SDS011;21367;51.930;8.112;2022-12-19T21:03:29;8.45;;;3.97;;
35223;SDS011;21367;51.930;8.112;2022-12-19T21:08:36;11.48;;;4.72;;
35223;SDS011;21367;51.930;8.112;2022-12-19T21:13:40;10.23;;;4.53;;
35223;SDS011;21367;51.930;8.112;2022-12-19T21:18:45;12.88;;;4.90;;
35223;SDS011;21367;51.930;8.112;2022-12-19T21:23:53;9.27;;;4.57;;
35223;SDS011;21367;51.930;8.112;2022-12-19T21:28:57;10.30;;;4.68;;
35223;SDS011;21367;51.930;8.112;2022-12-19T21:34:02;11.93;;;4.43;;
35223;SDS011;21367;51.930;8.112;2022-12-19T21:44:28;14.52;;;4.60;;
35223;SDS011;21367;51.930;8.112;2022-12-19T21:49:32;16.38;;;4.53;;
35223;SDS011;21367;51.930;8.112;2022-12-19T21:54:39;13.13;;;4.25;;
35223;SDS011;21367;51.930;8.112;2022-12-19T21:59:42;11.60;;;4.03;;
35223;SDS011;21367;51.930;8.112;2022-12-19T22:04:46;12.13;;;4.07;;
35223;SDS011;21367;51.930;8.112;2022-12-19T22:09:53;10.25;;;4.00;;
35223;SDS011;21367;51.930;8.112;2022-12-19T22:14:57;11.63;;;4.10;;
35223;SDS011;21367;51.930;8.112;2022-12-19T22:20:00;9.10;;;3.78;;
35223;SDS011;21367;51.930;8.112;2022-12-19T22:25:08;10.18;;;4.10;;
35223;SDS011;21367;51.930;8.112;2022-12-19T22:30:12;10.75;;;4.00;;
35223;SDS011;21367;51.930;8.112;2022-12-19T22:35:16;7.85;;;4.43;;
35223;SDS011;21367;51.930;8.112;2022-12-19T22:40:23;11.05;;;4.03;;
35223;SDS011;21367;51.930;8.112;2022-12-19T22:45:28;8.27;;;3.67;;
35223;SDS011;21367;51.930;8.112;2022-12-19T22:50:32;9.80;;;4.27;;
35223;SDS011;21367;51.930;8.112;2022-12-19T22:55:38;8.93;;;3.65;;
35223;SDS011;21367;51.930;8.112;2022-12-19T23:00:43;12.15;;;4.10;;
35223;SDS011;21367;51.930;8.112;2022-12-19T23:05:47;7.22;;;3.67;;
35223;SDS011;21367;51.930;8.112;2022-12-19T23:10:55;11.05;;;4.60;;
35223;SDS011;21367;51.930;8.112;2022-12-19T23:21:02;12.00;;;4.55;;
35223;SDS011;21367;51.930;8.112;2022-12-19T23:26:11;11.40;;;4.13;;
35223;SDS011;21367;51.930;8.112;2022-12-19T23:31:16;9.57;;;3.53;;
35223;SDS011;21367;51.930;8.112;2022-12-19T23:36:21;11.75;;;4.40;;
35223;SDS011;21367;51.930;8.112;2022-12-19T23:41:28;7.72;;;3.80;;
35223;SDS011;21367;51.930;8.112;2022-12-19T23:46:32;9.80;;;3.70;;
35223;SDS011;21367;51.930;8.112;2022-12-19T23:51:35;10.57;;;4.32;;
35223;SDS011;21367;51.930;8.112;2022-12-19T23:56:43;9.45;;;4.22;;
